sensor_id;sensor_type;location;lat;lon;timestamp;pressure;altitude;pressure_sealevel;temperature
68127;BMP180;54931;52.098;21.006;2022-09-03T00:00:54;100817.60;;;8.50
68127;BMP180;54931;52.098;21.006;2022-09-03T00:03:53;100817.40;;;8.50
68127;BMP180;54931;52.098;21.006;2022-09-03T00:06:38;100815.60;;;8.50
68127;BMP180;54931;52.098;21.006;2022-09-03T00:12:10;100817.20;;;8.40
68127;BMP180;54931;52.098;21.006;2022-09-03T00:14:50;100814.40;;;8.30
68127;BMP180;54931;52.098;21.006;2022-09-03T00:17:28;100817.00;;;8.30
68127;BMP180;54931;52.098;21.006;2022-09-03T00:20:06;100825.60;;;8.40
68127;BMP180;54931;52.098;21.006;2022-09-03T00:22:42;100820.60;;;8.40
68127;BMP180;54931;52.098;21.006;2022-09-03T00:25:20;100817.40;;;8.32
68127;BMP180;54931;52.098;21.006;2022-09-03T00:27:53;100817.80;;;8.30
68127;BMP180;54931;52.098;21.006;2022-09-03T00:30:22;100817.80;;;8.20
68127;BMP180;54931;52.098;21.006;2022-09-03T00:33:27;100815.20;;;8.10
68127;BMP180;54931;52.098;21.006;2022-09-03T00:36:53;100813.20;;;8.12
68127;BMP180;54931;52.098;21.006;2022-09-03T00:38:57;100814.20;;;8.10
68127;BMP180;54931;52.098;21.006;2022-09-03T00:41:35;100813.40;;;8.04
68127;BMP180;54931;52.098;21.006;2022-09-03T00:50:05;100814.80;;;8.00
68127;BMP180;54931;52.098;21.006;2022-09-03T00:55:41;100823.40;;;7.96
68127;BMP180;54931;52.098;21.006;2022-09-03T01:01:16;100819.80;;;7.80
68127;BMP180;54931;52.098;21.006;2022-09-03T01:04:28;100823.80;;;7.70
68127;BMP180;54931;52.098;21.006;2022-09-03T01:13:06;100816.20;;;7.70
68127;BMP180;54931;52.098;21.006;2022-09-03T01:15:51;100818.00;;;7.70
68127;BMP180;54931;52.098;21.006;2022-09-03T01:18:55;100817.00;;;7.60
68127;BMP180;54931;52.098;21.006;2022-09-03T01:28:00;100822.20;;;7.60
68127;BMP180;54931;52.098;21.006;2022-09-03T01:30:32;100821.40;;;7.50
68127;BMP180;54931;52.098;21.006;2022-09-03T01:39:08;100816.80;;;7.50
68127;BMP180;54931;52.098;21.006;2022-09-03T01:50:57;100814.20;;;7.30
68127;BMP180;54931;52.098;21.006;2022-09-03T01:54:02;100811.20;;;7.38
68127;BMP180;54931;52.098;21.006;2022-09-03T01:57:05;100811.60;;;7.40
68127;BMP180;54931;52.098;21.006;2022-09-03T02:00:26;100811.00;;;7.40
68127;BMP180;54931;52.098;21.006;2022-09-03T02:02:54;100806.40;;;7.40
68127;BMP180;54931;52.098;21.006;2022-09-03T02:05:26;100801.60;;;7.38
68127;BMP180;54931;52.098;21.006;2022-09-03T02:07:59;100804.20;;;7.30
68127;BMP180;54931;52.098;21.006;2022-09-03T02:10:34;100801.20;;;7.28
68127;BMP180;54931;52.098;21.006;2022-09-03T02:13:09;100803.80;;;7.30
68127;BMP180;54931;52.098;21.006;2022-09-03T02:15:43;100804.80;;;7.40
68127;BMP180;54931;52.098;21.006;2022-09-03T02:18:49;100796.20;;;7.34
68127;BMP180;54931;52.098;21.006;2022-09-03T02:21:20;100798.20;;;7.30
68127;BMP180;54931;52.098;21.006;2022-09-03T02:23:49;100796.00;;;7.20
68127;BMP180;54931;52.098;21.006;2022-09-03T02:26:23;100792.40;;;7.16
68127;BMP180;54931;52.098;21.006;2022-09-03T02:28:53;100794.20;;;7.20
68127;BMP180;54931;52.098;21.006;2022-09-03T02:31:22;100793.20;;;7.20
68127;BMP180;54931;52.098;21.006;2022-09-03T02:33:50;100797.60;;;7.16
68127;BMP180;54931;52.098;21.006;2022-09-03T02:36:25;100799.40;;;7.10
68127;BMP180;54931;52.098;21.006;2022-09-03T02:38:54;100797.40;;;7.04
68127;BMP180;54931;52.098;21.006;2022-09-03T02:41:22;100797.80;;;7.00
68127;BMP180;54931;52.098;21.006;2022-09-03T02:44:04;100797.00;;;7.10
68127;BMP180;54931;52.098;21.006;2022-09-03T02:46:40;100802.40;;;7.20
68127;BMP180;54931;52.098;21.006;2022-09-03T02:49:10;100797.60;;;7.10
68127;BMP180;54931;52.098;21.006;2022-09-03T02:51:43;100797.20;;;7.10
68127;BMP180;54931;52.098;21.006;2022-09-03T02:54:11;100798.40;;;7.00
68127;BMP180;54931;52.098;21.006;2022-09-03T02:56:39;100800.20;;;6.90
68127;BMP180;54931;52.098;21.006;2022-09-03T02:59:08;100799.80;;;7.00
68127;BMP180;54931;52.098;21.006;2022-09-03T03:01:36;100798.60;;;7.00
68127;BMP180;54931;52.098;21.006;2022-09-03T03:04:03;100799.60;;;7.00
68127;BMP180;54931;52.098;21.006;2022-09-03T03:06:30;100800.40;;;6.92
68127;BMP180;54931;52.098;21.006;2022-09-03T03:08:59;100787.80;;;6.88
68127;BMP180;54931;52.098;21.006;2022-09-03T03:11:27;100794.60;;;6.80
68127;BMP180;54931;52.098;21.006;2022-09-03T03:13:55;100795.40;;;6.90
68127;BMP180;54931;52.098;21.006;2022-09-03T03:16:22;100794.80;;;7.00
68127;BMP180;54931;52.098;21.006;2022-09-03T03:18:49;100797.00;;;7.00
68127;BMP180;54931;52.098;21.006;2022-09-03T03:21:18;100794.20;;;6.90
68127;BMP180;54931;52.098;21.006;2022-09-03T03:23:46;100799.00;;;6.80
68127;BMP180;54931;52.098;21.006;2022-09-03T03:26:17;100800.20;;;6.76
68127;BMP180;54931;52.098;21.006;2022-09-03T03:28:54;100801.40;;;6.80
68127;BMP180;54931;52.098;21.006;2022-09-03T03:31:23;100803.60;;;6.80
68127;BMP180;54931;52.098;21.006;2022-09-03T03:33:59;100799.60;;;6.80
68127;BMP180;54931;52.098;21.006;2022-09-03T03:36:30;100801.40;;;6.70
68127;BMP180;54931;52.098;21.006;2022-09-03T03:38:59;100806.80;;;6.70
68127;BMP180;54931;52.098;21.006;2022-09-03T03:41:32;100806.00;;;6.60
68127;BMP180;54931;52.098;21.006;2022-09-03T03:44:04;100808.20;;;6.60
68127;BMP180;54931;52.098;21.006;2022-09-03T03:46:38;100804.20;;;6.60
68127;BMP180;54931;52.098;21.006;2022-09-03T03:49:07;100808.40;;;6.60
68127;BMP180;54931;52.098;21.006;2022-09-03T03:51:37;100806.20;;;6.60
68127;BMP180;54931;52.098;21.006;2022-09-03T03:54:05;100808.60;;;6.50
68127;BMP180;54931;52.098;21.006;2022-09-03T03:56:34;100805.80;;;6.40
68127;BMP180;54931;52.098;21.006;2022-09-03T03:59:02;100805.20;;;6.34
68127;BMP180;54931;52.098;21.006;2022-09-03T04:01:29;100810.40;;;6.40
68127;BMP180;54931;52.098;21.006;2022-09-03T04:03:58;100806.60;;;6.50
68127;BMP180;54931;52.098;21.006;2022-09-03T04:06:28;100810.40;;;6.40
68127;BMP180;54931;52.098;21.006;2022-09-03T04:08:56;100809.00;;;6.40
68127;BMP180;54931;52.098;21.006;2022-09-03T04:11:23;100808.40;;;6.36
68127;BMP180;54931;52.098;21.006;2022-09-03T04:13:52;100810.40;;;6.40
68127;BMP180;54931;52.098;21.006;2022-09-03T04:16:25;100808.60;;;6.50
68127;BMP180;54931;52.098;21.006;2022-09-03T04:18:55;100811.20;;;6.50
68127;BMP180;54931;52.098;21.006;2022-09-03T04:21:28;100812.00;;;6.60
68127;BMP180;54931;52.098;21.006;2022-09-03T04:23:57;100815.80;;;6.54
68127;BMP180;54931;52.098;21.006;2022-09-03T04:26:28;100819.80;;;6.60
68127;BMP180;54931;52.098;21.006;2022-09-03T04:29:07;100821.80;;;6.70
68127;BMP180;54931;52.098;21.006;2022-09-03T04:31:37;100817.20;;;6.88
68127;BMP180;54931;52.098;21.006;2022-09-03T04:34:04;100822.40;;;6.98
68127;BMP180;54931;52.098;21.006;2022-09-03T04:36:36;100820.60;;;7.00
68127;BMP180;54931;52.098;21.006;2022-09-03T04:39:03;100819.20;;;7.04
68127;BMP180;54931;52.098;21.006;2022-09-03T04:41:31;100819.20;;;7.10
68127;BMP180;54931;52.098;21.006;2022-09-03T04:43:59;100815.40;;;7.12
68127;BMP180;54931;52.098;21.006;2022-09-03T04:46:28;100819.20;;;7.30
68127;BMP180;54931;52.098;21.006;2022-09-03T04:49:05;100823.40;;;7.54
68127;BMP180;54931;52.098;21.006;2022-09-03T04:51:35;100822.20;;;7.68
68127;BMP180;54931;52.098;21.006;2022-09-03T04:54:04;100822.60;;;7.88
68127;BMP180;54931;52.098;21.006;2022-09-03T04:56:34;100826.40;;;8.34
68127;BMP180;54931;52.098;21.006;2022-09-03T04:59:07;100830.40;;;8.92
68127;BMP180;54931;52.098;21.006;2022-09-03T05:01:38;100827.80;;;9.48
68127;BMP180;54931;52.098;21.006;2022-09-03T05:04:07;100833.00;;;10.06
68127;BMP180;54931;52.098;21.006;2022-09-03T05:06:35;100838.20;;;10.72
68127;BMP180;54931;52.098;21.006;2022-09-03T05:09:04;100834.20;;;11.22
68127;BMP180;54931;52.098;21.006;2022-09-03T05:11:32;100840.00;;;11.54
68127;BMP180;54931;52.098;21.006;2022-09-03T05:14:00;100842.20;;;11.90
68127;BMP180;54931;52.098;21.006;2022-09-03T05:16:28;100846.60;;;12.18
68127;BMP180;54931;52.098;21.006;2022-09-03T05:18:58;100847.00;;;12.40
68127;BMP180;54931;52.098;21.006;2022-09-03T05:21:26;100846.80;;;12.78
68127;BMP180;54931;52.098;21.006;2022-09-03T05:23:54;100851.80;;;13.16
68127;BMP180;54931;52.098;21.006;2022-09-03T05:26:28;100858.60;;;13.50
68127;BMP180;54931;52.098;21.006;2022-09-03T05:28:57;100859.00;;;13.80
68127;BMP180;54931;52.098;21.006;2022-09-03T05:31:29;100860.40;;;14.00
68127;BMP180;54931;52.098;21.006;2022-09-03T05:34:01;100863.40;;;14.14
68127;BMP180;54931;52.098;21.006;2022-09-03T05:36:33;100862.00;;;14.44
68127;BMP180;54931;52.098;21.006;2022-09-03T05:39:01;100863.60;;;14.60
68127;BMP180;54931;52.098;21.006;2022-09-03T05:41:29;100863.40;;;14.80
68127;BMP180;54931;52.098;21.006;2022-09-03T05:43:57;100865.20;;;15.00
68127;BMP180;54931;52.098;21.006;2022-09-03T05:46:30;100871.20;;;15.04
68127;BMP180;54931;52.098;21.006;2022-09-03T05:49:05;100871.00;;;15.30
68127;BMP180;54931;52.098;21.006;2022-09-03T05:51:35;100870.20;;;15.50
68127;BMP180;54931;52.098;21.006;2022-09-03T05:54:02;100867.80;;;15.76
68127;BMP180;54931;52.098;21.006;2022-09-03T05:56:31;100864.00;;;16.04
68127;BMP180;54931;52.098;21.006;2022-09-03T05:59:02;100861.20;;;16.20
68127;BMP180;54931;52.098;21.006;2022-09-03T06:01:37;100859.80;;;16.10
68127;BMP180;54931;52.098;21.006;2022-09-03T06:04:12;100859.60;;;16.10
68127;BMP180;54931;52.098;21.006;2022-09-03T06:06:43;100858.60;;;16.30
68127;BMP180;54931;52.098;21.006;2022-09-03T06:09:13;100866.60;;;16.36
68127;BMP180;54931;52.098;21.006;2022-09-03T06:11:43;100864.40;;;16.50
68127;BMP180;54931;52.098;21.006;2022-09-03T06:14:13;100866.00;;;16.48
68127;BMP180;54931;52.098;21.006;2022-09-03T06:16:44;100873.60;;;16.60
68127;BMP180;54931;52.098;21.006;2022-09-03T06:19:12;100869.00;;;16.92
68127;BMP180;54931;52.098;21.006;2022-09-03T06:21:43;100864.60;;;17.20
68127;BMP180;54931;52.098;21.006;2022-09-03T06:24:19;100865.80;;;17.30
68127;BMP180;54931;52.098;21.006;2022-09-03T06:26:49;100869.40;;;17.40
68127;BMP180;54931;52.098;21.006;2022-09-03T06:29:16;100866.60;;;17.34
68127;BMP180;54931;52.098;21.006;2022-09-03T06:31:45;100869.60;;;17.38
68127;BMP180;54931;52.098;21.006;2022-09-03T06:34:14;100868.20;;;17.60
68127;BMP180;54931;52.098;21.006;2022-09-03T06:36:44;100872.00;;;17.80
68127;BMP180;54931;52.098;21.006;2022-09-03T06:39:11;100874.40;;;18.10
68127;BMP180;54931;52.098;21.006;2022-09-03T06:41:39;100873.20;;;18.30
68127;BMP180;54931;52.098;21.006;2022-09-03T06:44:07;100874.80;;;18.58
68127;BMP180;54931;52.098;21.006;2022-09-03T06:46:39;100871.80;;;18.60
68127;BMP180;54931;52.098;21.006;2022-09-03T06:49:09;100877.60;;;18.72
68127;BMP180;54931;52.098;21.006;2022-09-03T06:51:38;100879.00;;;18.92
68127;BMP180;54931;52.098;21.006;2022-09-03T06:54:07;100874.60;;;19.10
68127;BMP180;54931;52.098;21.006;2022-09-03T06:56:37;100876.80;;;19.30
68127;BMP180;54931;52.098;21.006;2022-09-03T06:59:11;100880.60;;;19.40
68127;BMP180;54931;52.098;21.006;2022-09-03T07:01:41;100882.00;;;19.30
68127;BMP180;54931;52.098;21.006;2022-09-03T07:04:10;100882.60;;;19.50
68127;BMP180;54931;52.098;21.006;2022-09-03T07:06:40;100881.00;;;19.70
68127;BMP180;54931;52.098;21.006;2022-09-03T07:09:10;100876.20;;;19.64
68127;BMP180;54931;52.098;21.006;2022-09-03T07:11:38;100881.00;;;19.76
68127;BMP180;54931;52.098;21.006;2022-09-03T07:14:13;100878.20;;;20.00
68127;BMP180;54931;52.098;21.006;2022-09-03T07:16:40;100875.60;;;20.10
68127;BMP180;54931;52.098;21.006;2022-09-03T07:19:09;100877.40;;;20.34
68127;BMP180;54931;52.098;21.006;2022-09-03T07:21:40;100876.00;;;20.60
68127;BMP180;54931;52.098;21.006;2022-09-03T07:24:08;100877.60;;;20.70
68127;BMP180;54931;52.098;21.006;2022-09-03T07:26:40;100883.60;;;20.90
68127;BMP180;54931;52.098;21.006;2022-09-03T07:29:10;100885.00;;;21.10
68127;BMP180;54931;52.098;21.006;2022-09-03T07:31:42;100884.60;;;21.18
68127;BMP180;54931;52.098;21.006;2022-09-03T07:34:12;100893.00;;;21.16
68127;BMP180;54931;52.098;21.006;2022-09-03T07:36:43;100891.00;;;21.30
68127;BMP180;54931;52.098;21.006;2022-09-03T07:39:13;100892.40;;;21.40
68127;BMP180;54931;52.098;21.006;2022-09-03T07:41:41;100891.00;;;21.50
68127;BMP180;54931;52.098;21.006;2022-09-03T07:44:14;100890.80;;;21.60
68127;BMP180;54931;52.098;21.006;2022-09-03T07:46:45;100893.00;;;21.70
68127;BMP180;54931;52.098;21.006;2022-09-03T07:49:13;100890.80;;;21.70
68127;BMP180;54931;52.098;21.006;2022-09-03T07:51:41;100890.60;;;21.60
68127;BMP180;54931;52.098;21.006;2022-09-03T07:54:09;100891.00;;;21.76
68127;BMP180;54931;52.098;21.006;2022-09-03T07:56:39;100892.20;;;21.98
68127;BMP180;54931;52.098;21.006;2022-09-03T07:59:07;100892.00;;;22.08
68127;BMP180;54931;52.098;21.006;2022-09-03T08:01:36;100894.20;;;21.98
68127;BMP180;54931;52.098;21.006;2022-09-03T08:04:05;100895.60;;;22.22
68127;BMP180;54931;52.098;21.006;2022-09-03T08:06:32;100899.40;;;22.36
68127;BMP180;54931;52.098;21.006;2022-09-03T08:09:04;100903.60;;;22.42
68127;BMP180;54931;52.098;21.006;2022-09-03T08:11:36;100901.00;;;22.30
68127;BMP180;54931;52.098;21.006;2022-09-03T08:14:07;100899.60;;;22.32
68127;BMP180;54931;52.098;21.006;2022-09-03T08:16:41;100899.80;;;22.50
68127;BMP180;54931;52.098;21.006;2022-09-03T08:19:10;100899.80;;;22.50
68127;BMP180;54931;52.098;21.006;2022-09-03T08:21:39;100895.00;;;22.70
68127;BMP180;54931;52.098;21.006;2022-09-03T08:24:11;100897.80;;;22.70
68127;BMP180;54931;52.098;21.006;2022-09-03T08:26:41;100901.60;;;22.70
68127;BMP180;54931;52.098;21.006;2022-09-03T08:29:09;100905.60;;;23.00
68127;BMP180;54931;52.098;21.006;2022-09-03T08:31:36;100899.60;;;23.16
68127;BMP180;54931;52.098;21.006;2022-09-03T08:34:06;100892.40;;;23.30
68127;BMP180;54931;52.098;21.006;2022-09-03T08:36:36;100891.60;;;23.30
68127;BMP180;54931;52.098;21.006;2022-09-03T08:39:07;100887.20;;;23.32
68127;BMP180;54931;52.098;21.006;2022-09-03T08:44:46;100889.60;;;23.50
68127;BMP180;54931;52.098;21.006;2022-09-03T08:47:32;100890.80;;;23.60
68127;BMP180;54931;52.098;21.006;2022-09-03T08:53:20;100886.80;;;23.66
68127;BMP180;54931;52.098;21.006;2022-09-03T08:56:00;100877.80;;;23.40
68127;BMP180;54931;52.098;21.006;2022-09-03T08:58:34;100875.00;;;23.50
68127;BMP180;54931;52.098;21.006;2022-09-03T09:09:52;100872.00;;;23.80
68127;BMP180;54931;52.098;21.006;2022-09-03T09:21:29;100869.80;;;24.46
68127;BMP180;54931;52.098;21.006;2022-09-03T09:24:03;100874.00;;;24.50
68127;BMP180;54931;52.098;21.006;2022-09-03T09:26:32;100872.00;;;24.30
68127;BMP180;54931;52.098;21.006;2022-09-03T09:29:11;100875.40;;;24.00
68127;BMP180;54931;52.098;21.006;2022-09-03T09:31:40;100875.20;;;24.10
68127;BMP180;54931;52.098;21.006;2022-09-03T09:34:11;100875.60;;;24.10
68127;BMP180;54931;52.098;21.006;2022-09-03T09:36:52;100875.40;;;24.24
68127;BMP180;54931;52.098;21.006;2022-09-03T09:39:20;100878.80;;;24.30
68127;BMP180;54931;52.098;21.006;2022-09-03T09:42:08;100879.00;;;24.18
68127;BMP180;54931;52.098;21.006;2022-09-03T09:44:40;100878.20;;;24.20
68127;BMP180;54931;52.098;21.006;2022-09-03T09:49:56;100874.80;;;24.20
68127;BMP180;54931;52.098;21.006;2022-09-03T09:52:26;100867.20;;;24.36
68127;BMP180;54931;52.098;21.006;2022-09-03T09:55:10;100874.60;;;24.54
68127;BMP180;54931;52.098;21.006;2022-09-03T09:57:40;100873.00;;;24.60
68127;BMP180;54931;52.098;21.006;2022-09-03T10:00:15;100869.00;;;24.58
68127;BMP180;54931;52.098;21.006;2022-09-03T10:02:52;100874.20;;;24.60
68127;BMP180;54931;52.098;21.006;2022-09-03T10:05:29;100873.00;;;24.60
68127;BMP180;54931;52.098;21.006;2022-09-03T10:08:01;100875.40;;;24.60
68127;BMP180;54931;52.098;21.006;2022-09-03T10:10:38;100868.20;;;24.56
68127;BMP180;54931;52.098;21.006;2022-09-03T10:13:38;100871.80;;;24.50
68127;BMP180;54931;52.098;21.006;2022-09-03T10:16:22;100869.40;;;24.60
68127;BMP180;54931;52.098;21.006;2022-09-03T10:19:12;100868.20;;;24.40
68127;BMP180;54931;52.098;21.006;2022-09-03T10:22:00;100863.20;;;24.40
68127;BMP180;54931;52.098;21.006;2022-09-03T10:24:52;100866.80;;;24.32
68127;BMP180;54931;52.098;21.006;2022-09-03T10:27:22;100862.80;;;24.40
68127;BMP180;54931;52.098;21.006;2022-09-03T10:29:49;100863.00;;;24.50
68127;BMP180;54931;52.098;21.006;2022-09-03T10:35:34;100864.20;;;24.50
68127;BMP180;54931;52.098;21.006;2022-09-03T10:38:37;100865.40;;;24.42
68127;BMP180;54931;52.098;21.006;2022-09-03T10:51:15;100843.40;;;23.30
68127;BMP180;54931;52.098;21.006;2022-09-03T11:00:10;100839.00;;;23.38
68127;BMP180;54931;52.098;21.006;2022-09-03T11:05:41;100837.40;;;22.90
68127;BMP180;54931;52.098;21.006;2022-09-03T11:08:27;100841.20;;;22.80
68127;BMP180;54931;52.098;21.006;2022-09-03T11:11:19;100837.20;;;22.60
68127;BMP180;54931;52.098;21.006;2022-09-03T11:14:08;100834.20;;;22.50
68127;BMP180;54931;52.098;21.006;2022-09-03T11:16:54;100828.80;;;22.50
68127;BMP180;54931;52.098;21.006;2022-09-03T11:19:37;100827.00;;;22.44
68127;BMP180;54931;52.098;21.006;2022-09-03T11:22:07;100826.20;;;22.50
68127;BMP180;54931;52.098;21.006;2022-09-03T11:24:39;100820.00;;;22.30
68127;BMP180;54931;52.098;21.006;2022-09-03T11:30:03;100816.80;;;22.18
68127;BMP180;54931;52.098;21.006;2022-09-03T11:43:32;100815.00;;;21.70
68127;BMP180;54931;52.098;21.006;2022-09-03T11:48:43;100812.40;;;21.62
68127;BMP180;54931;52.098;21.006;2022-09-03T11:56:41;100800.00;;;21.78
68127;BMP180;54931;52.098;21.006;2022-09-03T12:01:59;100794.40;;;21.70
68127;BMP180;54931;52.098;21.006;2022-09-03T12:13:11;100793.20;;;22.00
68127;BMP180;54931;52.098;21.006;2022-09-03T12:16:35;100786.00;;;22.00
68127;BMP180;54931;52.098;21.006;2022-09-03T12:19:44;100789.00;;;21.90
68127;BMP180;54931;52.098;21.006;2022-09-03T12:22:16;100786.80;;;21.80
68127;BMP180;54931;52.098;21.006;2022-09-03T12:24:44;100776.80;;;21.70
68127;BMP180;54931;52.098;21.006;2022-09-03T12:27:18;100769.60;;;21.62
68127;BMP180;54931;52.098;21.006;2022-09-03T12:29:59;100776.60;;;21.70
68127;BMP180;54931;52.098;21.006;2022-09-03T12:32:31;100772.40;;;21.70
68127;BMP180;54931;52.098;21.006;2022-09-03T12:35:16;100765.80;;;21.70
68127;BMP180;54931;52.098;21.006;2022-09-03T12:37:44;100752.20;;;21.74
68127;BMP180;54931;52.098;21.006;2022-09-03T12:40:22;100755.40;;;21.70
68127;BMP180;54931;52.098;21.006;2022-09-03T12:42:50;100760.40;;;21.70
68127;BMP180;54931;52.098;21.006;2022-09-03T12:45:24;100758.60;;;21.70
68127;BMP180;54931;52.098;21.006;2022-09-03T12:47:52;100754.80;;;21.70
68127;BMP180;54931;52.098;21.006;2022-09-03T12:50:23;100752.60;;;21.70
68127;BMP180;54931;52.098;21.006;2022-09-03T12:53:02;100742.80;;;21.70
68127;BMP180;54931;52.098;21.006;2022-09-03T12:55:42;100746.20;;;21.72
68127;BMP180;54931;52.098;21.006;2022-09-03T13:01:30;100745.80;;;21.80
68127;BMP180;54931;52.098;21.006;2022-09-03T13:04:09;100746.00;;;21.90
68127;BMP180;54931;52.098;21.006;2022-09-03T13:06:53;100742.60;;;22.00
68127;BMP180;54931;52.098;21.006;2022-09-03T13:09:25;100741.00;;;22.00
68127;BMP180;54931;52.098;21.006;2022-09-03T13:11:56;100742.40;;;22.10
68127;BMP180;54931;52.098;21.006;2022-09-03T13:14:28;100735.40;;;22.10
68127;BMP180;54931;52.098;21.006;2022-09-03T13:17:10;100736.60;;;22.20
68127;BMP180;54931;52.098;21.006;2022-09-03T13:22:49;100728.00;;;22.00
68127;BMP180;54931;52.098;21.006;2022-09-03T13:25:32;100729.40;;;21.90
68127;BMP180;54931;52.098;21.006;2022-09-03T13:31:45;100723.80;;;21.90
68127;BMP180;54931;52.098;21.006;2022-09-03T13:34:32;100725.80;;;21.90
68127;BMP180;54931;52.098;21.006;2022-09-03T13:37:34;100720.20;;;21.94
68127;BMP180;54931;52.098;21.006;2022-09-03T13:40:21;100718.60;;;22.00
68127;BMP180;54931;52.098;21.006;2022-09-03T13:42:57;100716.00;;;22.04
68127;BMP180;54931;52.098;21.006;2022-09-03T13:45:36;100717.80;;;22.20
68127;BMP180;54931;52.098;21.006;2022-09-03T13:48:12;100716.40;;;22.30
68127;BMP180;54931;52.098;21.006;2022-09-03T13:51:19;100721.60;;;22.32
68127;BMP180;54931;52.098;21.006;2022-09-03T13:54:23;100717.20;;;22.40
68127;BMP180;54931;52.098;21.006;2022-09-03T13:57:03;100713.20;;;22.30
68127;BMP180;54931;52.098;21.006;2022-09-03T14:00:12;100715.60;;;22.40
68127;BMP180;54931;52.098;21.006;2022-09-03T14:05:37;100712.60;;;22.30
68127;BMP180;54931;52.098;21.006;2022-09-03T14:08:51;100710.20;;;22.30
68127;BMP180;54931;52.098;21.006;2022-09-03T14:11:48;100703.00;;;22.20
68127;BMP180;54931;52.098;21.006;2022-09-03T14:14:59;100707.00;;;22.10
68127;BMP180;54931;52.098;21.006;2022-09-03T14:17:50;100710.00;;;21.90
68127;BMP180;54931;52.098;21.006;2022-09-03T14:20:46;100710.20;;;21.90
68127;BMP180;54931;52.098;21.006;2022-09-03T14:23:43;100709.80;;;21.98
68127;BMP180;54931;52.098;21.006;2022-09-03T14:26:22;100708.40;;;22.00
68127;BMP180;54931;52.098;21.006;2022-09-03T14:29:06;100708.00;;;21.88
68127;BMP180;54931;52.098;21.006;2022-09-03T14:40:21;100700.40;;;21.80
68127;BMP180;54931;52.098;21.006;2022-09-03T14:55:06;100703.80;;;22.00
68127;BMP180;54931;52.098;21.006;2022-09-03T14:58:16;100707.60;;;22.00
68127;BMP180;54931;52.098;21.006;2022-09-03T15:01:04;100705.20;;;21.90
68127;BMP180;54931;52.098;21.006;2022-09-03T15:04:30;100701.20;;;21.80
68127;BMP180;54931;52.098;21.006;2022-09-03T15:10:44;100703.40;;;22.00
68127;BMP180;54931;52.098;21.006;2022-09-03T15:13:18;100702.00;;;21.82
68127;BMP180;54931;52.098;21.006;2022-09-03T15:22:18;100701.20;;;21.50
68127;BMP180;54931;52.098;21.006;2022-09-03T15:30:22;100704.40;;;21.30
68127;BMP180;54931;52.098;21.006;2022-09-03T15:33:09;100709.80;;;21.30
68127;BMP180;54931;52.098;21.006;2022-09-03T15:36:20;100702.00;;;21.30
68127;BMP180;54931;52.098;21.006;2022-09-03T15:39:21;100703.80;;;21.30
68127;BMP180;54931;52.098;21.006;2022-09-03T15:42:21;100703.40;;;21.30
68127;BMP180;54931;52.098;21.006;2022-09-03T15:45:01;100704.20;;;21.30
68127;BMP180;54931;52.098;21.006;2022-09-03T15:50:33;100700.60;;;21.18
68127;BMP180;54931;52.098;21.006;2022-09-03T16:04:55;100708.00;;;21.00
68127;BMP180;54931;52.098;21.006;2022-09-03T16:07:57;100707.40;;;21.12
68127;BMP180;54931;52.098;21.006;2022-09-03T16:10:45;100712.20;;;21.76
68127;BMP180;54931;52.098;21.006;2022-09-03T16:16:18;100712.00;;;22.10
68127;BMP180;54931;52.098;21.006;2022-09-03T16:19:08;100710.20;;;22.70
68127;BMP180;54931;52.098;21.006;2022-09-03T16:24:40;100717.00;;;23.40
68127;BMP180;54931;52.098;21.006;2022-09-03T16:27:41;100720.40;;;23.44
68127;BMP180;54931;52.098;21.006;2022-09-03T16:39:02;100721.40;;;23.40
68127;BMP180;54931;52.098;21.006;2022-09-03T16:58:12;100721.80;;;20.56
68127;BMP180;54931;52.098;21.006;2022-09-03T17:04:13;100732.40;;;19.80
68127;BMP180;54931;52.098;21.006;2022-09-03T17:10:09;100727.00;;;19.22
68127;BMP180;54931;52.098;21.006;2022-09-03T17:12:49;100726.20;;;19.00
68127;BMP180;54931;52.098;21.006;2022-09-03T17:19:17;100728.80;;;18.38
68127;BMP180;54931;52.098;21.006;2022-09-03T17:24:52;100737.00;;;17.70
68127;BMP180;54931;52.098;21.006;2022-09-03T17:27:52;100739.80;;;17.42
68127;BMP180;54931;52.098;21.006;2022-09-03T17:30:56;100742.40;;;17.18
68127;BMP180;54931;52.098;21.006;2022-09-03T17:36:27;100748.60;;;16.60
68127;BMP180;54931;52.098;21.006;2022-09-03T17:39:41;100750.80;;;16.40
68127;BMP180;54931;52.098;21.006;2022-09-03T17:42:50;100751.40;;;16.16
68127;BMP180;54931;52.098;21.006;2022-09-03T17:45:40;100754.00;;;15.90
68127;BMP180;54931;52.098;21.006;2022-09-03T17:51:03;100763.80;;;15.60
68127;BMP180;54931;52.098;21.006;2022-09-03T17:53:56;100765.60;;;15.40
68127;BMP180;54931;52.098;21.006;2022-09-03T17:56:29;100765.60;;;15.30
68127;BMP180;54931;52.098;21.006;2022-09-03T18:02:44;100772.40;;;15.00
68127;BMP180;54931;52.098;21.006;2022-09-03T18:05:26;100773.20;;;14.80
68127;BMP180;54931;52.098;21.006;2022-09-03T18:16:04;100764.60;;;14.30
68127;BMP180;54931;52.098;21.006;2022-09-03T18:18:42;100764.20;;;14.20
68127;BMP180;54931;52.098;21.006;2022-09-03T18:21:24;100766.00;;;14.14
68127;BMP180;54931;52.098;21.006;2022-09-03T18:24:33;100760.60;;;14.10
68127;BMP180;54931;52.098;21.006;2022-09-03T18:27:32;100760.60;;;14.00
68127;BMP180;54931;52.098;21.006;2022-09-03T18:30:21;100763.00;;;13.90
68127;BMP180;54931;52.098;21.006;2022-09-03T18:33:07;100760.20;;;13.84
68127;BMP180;54931;52.098;21.006;2022-09-03T18:35:54;100763.60;;;13.78
68127;BMP180;54931;52.098;21.006;2022-09-03T18:38:40;100765.80;;;13.66
68127;BMP180;54931;52.098;21.006;2022-09-03T19:00:21;100767.60;;;13.20
68127;BMP180;54931;52.098;21.006;2022-09-03T19:03:48;100773.60;;;13.10
68127;BMP180;54931;52.098;21.006;2022-09-03T19:06:55;100772.80;;;13.08
68127;BMP180;54931;52.098;21.006;2022-09-03T19:10:11;100772.60;;;13.00
68127;BMP180;54931;52.098;21.006;2022-09-03T19:22:37;100774.80;;;13.10
68127;BMP180;54931;52.098;21.006;2022-09-03T19:25:28;100773.60;;;13.20